Terminal Aerodrome Forecast
Issued by NWS Shreveport, LA

Home | Current Version | Previous Version | Text Only | Print | Product List | Glossary On
Versions: 1 2 3 4 5 6 7 8 9 10 11 12 13 14 15 16 17 18 19 20 21 22 23
000
FTUS44 KSHV 202341
TAFMLU
TAF
KMLU 202341Z 2100/2124 15006KT P6SM OVC050
      TEMPO 2100/2101 3SM TSRA BR OVC025CB
     FM210100 VRB04KT 4SM -RA BR OVC015
     FM211400 25006KT P6SM -SHRA OVC015
     FM212000 31006KT P6SM -RA BKN100=

USA.gov is the U.S. government's official web portal to all federal, state and local government web resources and services.